Time;durP1;ratioP1;P1;durP2;ratioP2;P2;SDS_P1;SDS_P2;PMS_P1;PMS_P2;Temp;Humidity;BMP_temperature;BMP_pressure;BME280_temperature;BME280_humidity;BME280_pressure;Samples;Min_cycle;Max_cycle;Signal;HPM_P1;HPM_P2
2021/12/10 00:01:11;;;;;;;6.75;3.10;;;5.50;82.00;;;;;;4965322;28;20748;-73
2021/12/10 00:03:43;;;;;;;4.53;2.70;;;5.50;82.00;;;;;;4964024;28;20214;-73
2021/12/10 00:06:13;;;;;;;4.85;3.00;;;5.50;82.00;;;;;;4969374;28;20214;-73
2021/12/10 00:08:46;;;;;;;3.85;2.42;;;5.50;82.00;;;;;;4961414;28;21090;-73
2021/12/10 00:11:17;;;;;;;3.80;2.17;;;5.50;81.90;;;;;;4963552;28;20627;-72
2021/12/10 00:13:48;;;;;;;4.63;3.00;;;5.50;81.90;;;;;;4964406;28;20222;-73
2021/12/10 00:16:18;;;;;;;4.32;2.40;;;5.50;81.90;;;;;;4967910;28;20246;-72
2021/12/10 00:18:52;;;;;;;4.63;2.92;;;5.50;81.90;;;;;;4964224;28;20226;-73
2021/12/10 00:21:22;;;;;;;5.47;2.70;;;5.50;81.90;;;;;;4968390;28;20217;-73
2021/12/10 00:23:51;;;;;;;4.57;2.85;;;5.50;81.90;;;;;;4966351;28;20217;-73
2021/12/10 00:26:20;;;;;;;4.90;2.80;;;5.50;81.90;;;;;;4958696;28;20246;-72
2021/12/10 00:28:51;;;;;;;5.35;2.70;;;5.50;81.90;;;;;;4960607;28;20289;-73
2021/12/10 00:31:32;;;;;;;4.93;3.10;;;5.50;81.90;;;;;;4956846;28;20250;-73
2021/12/10 00:34:04;;;;;;;6.30;3.20;;;5.50;81.80;;;;;;4958475;28;20306;-73
2021/12/10 00:36:36;;;;;;;5.55;3.40;;;5.50;81.90;;;;;;4960196;28;20846;-73
2021/12/10 00:39:06;;;;;;;7.20;3.20;;;5.50;81.80;;;;;;4961743;28;20728;-73
2021/12/10 00:41:34;;;;;;;5.97;3.70;;;5.50;81.80;;;;;;4956006;28;20199;-73
2021/12/10 00:44:04;;;;;;;9.43;3.97;;;5.50;81.90;;;;;;4958573;28;20203;-73
2021/12/10 00:46:33;;;;;;;6.03;3.70;;;5.50;81.90;;;;;;4953589;28;20231;-73
2021/12/10 00:49:02;;;;;;;10.05;4.20;;;5.50;81.90;;;;;;4962000;28;20279;-73
2021/12/10 00:51:30;;;;;;;7.70;3.67;;;5.50;81.90;;;;;;4960976;28;20206;-73
2021/12/10 00:53:57;;;;;;;6.68;3.88;;;5.50;81.80;;;;;;4978814;28;20579;-72
2021/12/10 00:56:26;;;;;;;7.53;4.40;;;5.50;81.80;;;;;;4960561;28;20214;-73
2021/12/10 00:58:54;;;;;;;6.53;4.30;;;5.50;81.60;;;;;;4958723;28;20263;-72
2021/12/10 01:01:26;;;;;;;9.43;4.60;;;5.50;81.80;;;;;;4956048;28;20297;-73
2021/12/10 01:03:58;;;;;;;7.78;4.93;;;5.50;81.80;;;;;;4956059;28;20203;-73
2021/12/10 01:06:27;;;;;;;8.35;4.90;;;5.50;81.80;;;;;;4963547;28;20207;-72
2021/12/10 01:08:58;;;;;;;8.65;4.85;;;5.50;81.90;;;;;;4961997;28;20279;-73
2021/12/10 01:11:35;;;;;;;6.72;4.60;;;5.50;81.90;;;;;;4961487;28;20211;-73
2021/12/10 01:14:13;;;;;;;9.13;4.30;;;5.50;81.90;;;;;;4960607;28;20211;-73
2021/12/10 01:25:10;;;;;;;9.75;4.55;;;5.60;81.90;;;;;;4959694;28;20219;-73
2021/12/10 01:27:43;;;;;;;8.02;4.65;;;5.60;81.90;;;;;;4960270;28;20719;-73
2021/12/10 01:30:17;;;;;;;11.73;4.93;;;5.60;81.80;;;;;;4958700;28;20635;-73
2021/12/10 01:32:51;;;;;;;10.20;5.82;;;5.60;81.50;;;;;;4961201;28;20222;-73
2021/12/10 01:35:23;;;;;;;11.57;5.75;;;5.60;81.60;;;;;;4973002;28;20222;-72
2021/12/10 01:37:52;;;;;;;14.65;4.95;;;5.60;81.80;;;;;;4967913;28;20799;-73
2021/12/10 01:40:22;;;;;;;16.23;6.35;;;5.60;81.80;;;;;;4964726;28;20747;-73
2021/12/10 01:42:53;;;;;;;15.15;6.55;;;5.60;81.80;;;;;;4964097;28;20215;-73
2021/12/10 01:45:24;;;;;;;9.15;5.47;;;5.60;81.80;;;;;;4962568;28;20199;-73
2021/12/10 01:47:59;;;;;;;10.23;6.30;;;5.60;81.80;;;;;;4961775;28;20230;-73
2021/12/10 01:50:29;;;;;;;10.15;6.00;;;5.60;81.60;;;;;;4954386;28;20207;-73
2021/12/10 01:53:00;;;;;;;12.65;6.57;;;5.60;81.60;;;;;;4983452;28;20214;-73
2021/12/10 01:55:30;;;;;;;10.82;6.20;;;5.60;81.60;;;;;;4960487;28;20219;-73
2021/12/10 01:58:00;;;;;;;8.40;5.93;;;5.60;81.60;;;;;;4959298;28;20226;-72
2021/12/10 02:00:32;;;;;;;11.65;6.05;;;5.60;81.40;;;;;;4960358;28;20244;-73
2021/12/10 02:03:02;;;;;;;9.68;5.90;;;5.60;81.50;;;;;;4968207;28;20205;-73
2021/12/10 02:05:30;;;;;;;17.05;6.13;;;5.60;81.60;;;;;;4965406;28;20207;-72
2021/12/10 02:07:58;;;;;;;12.15;6.15;;;5.60;81.60;;;;;;4963831;28;20637;-73
2021/12/10 02:10:28;;;;;;;14.98;5.75;;;5.60;81.60;;;;;;4971088;28;20225;-72
2021/12/10 02:12:57;;;;;;;15.18;6.55;;;5.50;81.60;;;;;;4965558;28;20270;-72
2021/12/10 02:15:27;;;;;;;14.95;6.13;;;5.60;81.50;;;;;;4958921;28;20253;-73
2021/12/10 02:17:58;;;;;;;9.43;5.70;;;5.50;81.60;;;;;;4961206;28;20306;-74
2021/12/10 02:20:31;;;;;;;14.57;6.18;;;5.60;81.80;;;;;;4979716;28;20819;-74
2021/12/10 02:23:01;;;;;;;11.20;5.47;;;5.60;81.80;;;;;;4959645;28;20245;-74
2021/12/10 02:25:32;;;;;;;11.20;5.38;;;5.60;81.60;;;;;;4965418;28;20238;-74
2021/12/10 02:28:00;;;;;;;10.75;5.45;;;5.60;81.60;;;;;;4963134;28;20230;-74
2021/12/10 02:30:30;;;;;;;14.75;5.40;;;5.60;81.60;;;;;;4963860;28;20286;-75
2021/12/10 02:32:58;;;;;;;10.68;5.20;;;5.60;81.60;;;;;;4983920;28;20215;-74
2021/12/10 02:35:27;;;;;;;13.25;5.35;;;5.60;81.60;;;;;;4986098;28;20215;-74
2021/12/10 02:37:56;;;;;;;13.25;4.97;;;5.60;81.60;;;;;;4972358;28;20279;-74
2021/12/10 02:40:29;;;;;;;9.75;4.78;;;5.60;81.60;;;;;;4970486;28;20202;-74
2021/12/10 02:42:59;;;;;;;12.25;5.10;;;5.60;81.50;;;;;;4961803;28;20963;-75
2021/12/10 02:45:28;;;;;;;8.93;4.43;;;5.60;81.40;;;;;;4960166;28;20289;-73
2021/12/10 02:47:57;;;;;;;21.08;5.55;;;5.60;81.50;;;;;;4965710;28;21246;-74
2021/12/10 02:50:30;;;;;;;9.48;4.90;;;5.60;81.50;;;;;;4962865;28;20446;-74
2021/12/10 02:52:59;;;;;;;12.13;4.85;;;5.60;81.50;;;;;;4968890;28;20211;-74
2021/12/10 02:55:29;;;;;;;9.25;5.22;;;5.60;81.40;;;;;;4963476;28;20219;-73
2021/12/10 02:58:02;;;;;;;13.18;4.85;;;5.50;81.40;;;;;;4962077;28;20606;-74
2021/12/10 03:00:33;;;;;;;11.75;5.10;;;5.50;81.30;;;;;;4962047;28;20239;-74
2021/12/10 03:03:02;;;;;;;15.05;5.20;;;5.50;81.40;;;;;;4967038;28;20261;-74
2021/12/10 03:05:30;;;;;;;15.43;5.00;;;5.50;81.30;;;;;;4977580;28;20199;-74
2021/12/10 03:07:58;;;;;;;17.80;5.82;;;5.50;81.30;;;;;;4960711;28;20824;-74
2021/12/10 03:10:31;;;;;;;7.97;4.25;;;5.40;81.40;;;;;;4966478;28;20280;-74
2021/12/10 03:12:59;;;;;;;10.27;5.00;;;5.40;81.40;;;;;;4963657;28;20203;-74
2021/12/10 03:15:28;;;;;;;10.57;5.10;;;5.40;81.40;;;;;;4966815;28;20296;-73
2021/12/10 03:17:57;;;;;;;12.43;5.78;;;5.40;81.30;;;;;;4968157;28;20242;-72
2021/12/10 03:20:30;;;;;;;16.40;5.25;;;5.40;81.20;;;;;;4971898;28;20218;-74
2021/12/10 03:22:58;;;;;;;10.00;5.60;;;5.30;81.20;;;;;;4962438;28;20269;-73
2021/12/10 03:25:26;;;;;;;10.32;4.53;;;5.30;81.20;;;;;;4959571;28;20191;-74
2021/12/10 03:27:56;;;;;;;11.65;4.90;;;5.30;81.30;;;;;;4965974;28;20223;-74
2021/12/10 03:30:28;;;;;;;7.50;4.47;;;5.30;81.30;;;;;;4964947;28;20264;-73
2021/12/10 03:32:56;;;;;;;10.68;4.28;;;5.30;81.40;;;;;;4962428;28;20206;-74
2021/12/10 03:35:31;;;;;;;11.15;4.25;;;5.30;81.30;;;;;;4962573;28;20210;-74
2021/12/10 03:38:01;;;;;;;16.38;4.80;;;5.30;81.20;;;;;;4964336;28;20929;-74
2021/12/10 03:40:30;;;;;;;15.23;5.57;;;5.20;81.20;;;;;;4960173;28;20459;-73
2021/12/10 03:42:59;;;;;;;12.20;5.00;;;5.20;81.20;;;;;;4960900;28;20261;-73
2021/12/10 03:45:31;;;;;;;13.02;4.20;;;5.20;81.20;;;;;;4956954;28;20234;-72
2021/12/10 03:47:59;;;;;;;10.88;4.03;;;5.10;81.10;;;;;;4961527;28;20226;-74
2021/12/10 03:50:32;;;;;;;6.68;4.40;;;5.10;81.10;;;;;;4964548;28;20272;-73
2021/12/10 03:53:00;;;;;;;8.55;4.45;;;5.10;81.10;;;;;;4959810;28;20278;-75
2021/12/10 03:55:29;;;;;;;9.15;4.90;;;5.00;81.00;;;;;;4961438;28;20198;-72
2021/12/10 03:57:59;;;;;;;13.18;5.10;;;5.00;81.00;;;;;;4960886;28;20226;-71
2021/12/10 04:00:33;;;;;;;11.15;4.97;;;4.90;80.90;;;;;;4956221;28;20262;-73
2021/12/10 04:03:02;;;;;;;14.57;5.85;;;4.90;80.90;;;;;;4957244;28;20207;-71
2021/12/10 04:05:30;;;;;;;13.20;5.88;;;4.80;81.00;;;;;;4956942;28;20199;-74
2021/12/10 04:07:59;;;;;;;11.63;5.60;;;4.80;81.20;;;;;;4959058;28;20242;-73
2021/12/10 04:10:27;;;;;;;11.05;5.05;;;4.80;81.40;;;;;;4959603;28;20269;-73
2021/12/10 04:12:56;;;;;;;10.10;5.00;;;4.80;81.30;;;;;;4955055;28;20203;-70
2021/12/10 04:15:28;;;;;;;11.05;5.18;;;4.80;81.30;;;;;;4972910;28;20278;-71
2021/12/10 04:17:57;;;;;;;9.57;4.80;;;4.80;81.10;;;;;;4957429;28;20238;-71
2021/12/10 04:20:28;;;;;;;13.10;5.38;;;4.80;81.10;;;;;;4957710;28;20203;-72
2021/12/10 04:22:58;;;;;;;14.40;5.55;;;4.80;81.20;;;;;;4958180;28;20196;-71
2021/12/10 04:25:26;;;;;;;12.30;5.47;;;4.70;81.00;;;;;;4957465;28;20203;-71
2021/12/10 04:27:57;;;;;;;12.98;4.28;;;4.70;81.10;;;;;;4959162;28;20231;-71
2021/12/10 04:30:29;;;;;;;12.30;4.97;;;4.60;81.10;;;;;;4960065;28;20253;-75
2021/12/10 04:32:58;;;;;;;10.90;4.47;;;4.60;81.20;;;;;;4955318;28;20198;-70
2021/12/10 04:35:26;;;;;;;11.70;5.32;;;4.50;81.30;;;;;;4960198;28;20231;-72
2021/12/10 04:37:53;;;;;;;9.00;5.00;;;4.50;81.20;;;;;;4960005;28;20585;-73
2021/12/10 04:40:22;;;;;;;9.35;4.80;;;4.50;81.20;;;;;;4959561;28;20206;-74
2021/12/10 04:42:51;;;;;;;11.25;5.13;;;4.40;81.20;;;;;;4962445;28;20207;-73
2021/12/10 04:45:21;;;;;;;10.13;4.97;;;4.40;81.30;;;;;;4968509;28;20206;-71
2021/12/10 04:47:51;;;;;;;11.82;5.57;;;4.40;81.40;;;;;;4969985;28;20234;-71
2021/12/10 04:50:21;;;;;;;13.27;5.18;;;4.40;81.40;;;;;;4981853;28;20207;-71
2021/12/10 04:52:49;;;;;;;9.90;4.38;;;4.40;81.40;;;;;;4962415;28;20204;-71
2021/12/10 04:55:19;;;;;;;16.95;6.60;;;4.40;81.40;;;;;;4960886;28;20199;-72
2021/12/10 04:57:47;;;;;;;14.73;8.70;;;4.40;81.40;;;;;;4977209;28;20236;-71
2021/12/10 05:00:18;;;;;;;20.67;8.85;;;4.30;81.40;;;;;;4963103;28;20639;-71
2021/12/10 05:02:46;;;;;;;21.27;9.25;;;4.30;81.50;;;;;;4959348;28;20203;-74
2021/12/10 05:05:16;;;;;;;14.35;7.45;;;4.20;81.40;;;;;;4964333;28;20635;-74
2021/12/10 05:07:44;;;;;;;15.60;6.53;;;4.20;81.50;;;;;;4964858;28;20230;-75
2021/12/10 05:10:15;;;;;;;16.25;8.43;;;4.20;81.60;;;;;;4963829;28;20218;-74
2021/12/10 05:12:43;;;;;;;18.90;8.60;;;4.10;81.50;;;;;;4962227;28;20194;-74
2021/12/10 05:15:14;;;;;;;13.77;6.53;;;4.10;81.50;;;;;;4968176;28;20229;-72
2021/12/10 05:17:42;;;;;;;14.38;5.40;;;4.10;81.60;;;;;;4964056;28;20235;-71
2021/12/10 05:20:15;;;;;;;12.05;5.32;;;4.10;81.70;;;;;;4965276;28;20211;-71
2021/12/10 05:22:47;;;;;;;11.68;6.15;;;4.10;81.70;;;;;;4958767;28;20257;-74
2021/12/10 05:25:16;;;;;;;10.88;5.70;;;4.10;81.70;;;;;;4958416;28;20302;-72
2021/12/10 05:27:44;;;;;;;17.90;6.28;;;4.10;81.70;;;;;;4979335;28;20223;-71
2021/12/10 05:30:16;;;;;;;14.77;7.47;;;4.10;81.60;;;;;;4970316;28;20214;-71
2021/12/10 05:32:44;;;;;;;24.13;14.18;;;4.10;81.60;;;;;;4964454;28;20235;-71
2021/12/10 05:35:13;;;;;;;12.10;7.22;;;4.10;81.60;;;;;;4966744;28;20211;-70
2021/12/10 05:37:41;;;;;;;19.45;7.15;;;4.10;81.40;;;;;;4966307;28;20277;-73
2021/12/10 05:40:14;;;;;;;12.45;5.18;;;4.10;81.30;;;;;;4960908;28;20212;-73
2021/12/10 05:42:45;;;;;;;9.52;4.95;;;4.00;81.30;;;;;;4961869;28;20202;-75
2021/12/10 05:45:15;;;;;;;11.30;5.10;;;3.90;81.40;;;;;;4965940;28;20210;-73
2021/12/10 05:47:44;;;;;;;9.60;4.68;;;3.90;81.40;;;;;;4973748;28;20231;-71
2021/12/10 05:50:13;;;;;;;14.57;5.55;;;3.80;81.40;;;;;;4970275;28;20265;-72
2021/12/10 05:52:41;;;;;;;10.45;4.72;;;3.80;81.50;;;;;;4967252;28;20204;-71
2021/12/10 05:55:12;;;;;;;11.98;4.95;;;3.80;81.50;;;;;;4963261;28;20243;-71
2021/12/10 05:57:40;;;;;;;10.00;4.95;;;3.80;81.50;;;;;;4959266;28;20234;-72
2021/12/10 06:00:12;;;;;;;12.40;5.70;;;3.80;81.40;;;;;;4959214;28;20207;-70
2021/12/10 06:02:40;;;;;;;10.77;5.30;;;3.80;81.60;;;;;;4966935;28;20218;-72
2021/12/10 06:05:10;;;;;;;12.75;4.93;;;3.80;81.90;;;;;;4984137;28;20203;-71
2021/12/10 06:07:39;;;;;;;11.85;4.60;;;3.80;81.90;;;;;;4964170;28;20212;-71
2021/12/10 06:10:08;;;;;;;10.90;4.30;;;3.90;81.70;;;;;;4960844;28;20269;-72
2021/12/10 06:12:38;;;;;;;14.43;4.50;;;3.90;81.90;;;;;;4962075;28;20230;-75
2021/12/10 06:15:07;;;;;;;10.30;4.57;;;3.90;82.00;;;;;;4961728;28;20259;-71
2021/12/10 06:17:35;;;;;;;21.15;4.80;;;4.00;81.80;;;;;;4962440;28;20235;-72
2021/12/10 06:20:08;;;;;;;10.25;3.80;;;4.00;81.70;;;;;;4965576;28;20251;-71
2021/12/10 06:22:36;;;;;;;8.57;4.15;;;4.10;81.60;;;;;;4963993;28;20696;-74
2021/12/10 06:25:06;;;;;;;7.90;4.30;;;4.10;81.40;;;;;;4967286;28;20202;-73
2021/12/10 06:27:34;;;;;;;9.52;4.45;;;4.00;81.20;;;;;;4967900;28;20288;-74
2021/12/10 06:30:05;;;;;;;9.75;3.97;;;4.00;81.40;;;;;;4983091;28;20210;-73
2021/12/10 06:32:33;;;;;;;9.32;4.55;;;4.00;81.30;;;;;;4960240;28;20235;-73
2021/12/10 06:35:01;;;;;;;11.43;4.28;;;4.00;81.10;;;;;;4961094;28;20211;-73
2021/12/10 06:37:29;;;;;;;9.90;4.07;;;4.00;81.10;;;;;;4957737;28;20253;-74
2021/12/10 06:39:57;;;;;;;11.50;4.72;;;3.90;81.10;;;;;;4965139;28;20683;-74
2021/12/10 06:42:25;;;;;;;12.93;5.40;;;3.90;81.10;;;;;;4979140;28;20206;-74
2021/12/10 06:45:04;;;;;;;11.48;5.40;;;3.80;81.10;;;;;;4962724;28;20206;-74
2021/12/10 06:47:34;;;;;;;11.15;6.50;;;3.80;81.10;;;;;;4959633;28;20231;-75
2021/12/10 06:50:02;;;;;;;21.50;11.68;;;3.80;81.00;;;;;;4961014;28;20211;-74
2021/12/10 06:52:30;;;;;;;112.43;48.33;;;3.80;81.20;;;;;;4952299;28;20247;-72
2021/12/10 06:54:58;;;;;;;40.15;15.65;;;3.80;81.10;;;;;;4949946;28;20223;-72
2021/12/10 06:57:26;;;;;;;77.97;33.60;;;3.70;81.10;;;;;;4955404;28;20577;-72
2021/12/10 06:59:55;;;;;;;77.88;33.00;;;3.70;81.10;;;;;;4972684;28;20211;-75
2021/12/10 07:02:23;;;;;;;179.27;61.53;;;3.70;81.20;;;;;;4940013;28;20220;-71
2021/12/10 07:04:53;;;;;;;54.60;23.67;;;3.70;81.20;;;;;;4939476;28;20299;-71
2021/12/10 07:07:21;;;;;;;51.30;21.02;;;3.60;81.20;;;;;;4936892;28;20230;-74
2021/12/10 07:09:49;;;;;;;51.10;18.42;;;3.60;81.20;;;;;;4940526;28;20227;-73
2021/12/10 07:12:18;;;;;;;220.63;82.85;;;3.60;81.10;;;;;;4941651;28;20220;-72
2021/12/10 07:14:46;;;;;;;61.88;25.02;;;3.60;81.10;;;;;;4940220;28;20203;-73
2021/12/10 07:17:14;;;;;;;117.63;58.30;;;3.50;81.20;;;;;;4939282;28;20248;-72
2021/12/10 07:19:43;;;;;;;89.22;39.47;;;3.50;81.20;;;;;;4940914;28;20220;-73
2021/12/10 07:22:13;;;;;;;17.33;8.50;;;3.50;81.10;;;;;;4945539;28;20222;-73
2021/12/10 07:24:41;;;;;;;9.30;5.78;;;3.50;81.20;;;;;;4939426;28;20204;-72
2021/12/10 07:27:11;;;;;;;10.43;4.97;;;3.50;81.20;;;;;;4949905;28;20640;-73
2021/12/10 07:29:40;;;;;;;9.70;4.90;;;3.50;81.20;;;;;;4941247;28;20773;-72
2021/12/10 07:32:09;;;;;;;11.02;4.88;;;3.50;81.20;;;;;;4939118;28;20228;-73
2021/12/10 07:34:37;;;;;;;10.25;4.95;;;3.40;81.20;;;;;;4936863;28;20681;-73
2021/12/10 07:37:07;;;;;;;8.38;5.38;;;3.40;81.20;;;;;;4939936;28;20238;-73
2021/12/10 07:39:38;;;;;;;8.43;5.10;;;3.40;81.10;;;;;;4938125;28;20220;-73
2021/12/10 07:42:07;;;;;;;13.93;5.90;;;3.40;81.10;;;;;;4938985;28;20200;-73
2021/12/10 07:44:36;;;;;;;12.05;5.80;;;3.30;81.10;;;;;;4952401;28;20250;-73
2021/12/10 07:47:08;;;;;;;9.90;5.50;;;3.30;81.10;;;;;;4951577;28;20234;-73
2021/12/10 07:49:38;;;;;;;8.77;5.63;;;3.30;81.30;;;;;;4955169;28;20294;-73
2021/12/10 07:52:16;;;;;;;10.20;5.70;;;3.30;81.40;;;;;;4958068;28;20211;-72
2021/12/10 07:54:47;;;;;;;12.48;6.00;;;3.40;81.30;;;;;;4957136;28;20219;-72
2021/12/10 07:57:17;;;;;;;12.15;6.25;;;3.40;81.40;;;;;;4959519;28;20313;-72
2021/12/10 07:59:45;;;;;;;11.82;5.22;;;3.40;81.40;;;;;;4958233;28;20223;-72
2021/12/10 08:02:14;;;;;;;10.38;5.32;;;3.40;81.50;;;;;;4960244;28;20242;-72
2021/12/10 08:04:43;;;;;;;16.55;7.15;;;3.40;81.40;;;;;;4960003;28;20298;-72
2021/12/10 08:07:13;;;;;;;9.90;6.72;;;3.50;81.50;;;;;;4958479;28;20238;-72
2021/12/10 08:09:41;;;;;;;12.63;7.85;;;3.50;81.40;;;;;;4958152;28;20223;-72
2021/12/10 08:12:12;;;;;;;13.70;8.30;;;3.50;81.40;;;;;;4956976;28;20216;-72
2021/12/10 08:14:39;;;;;;;15.65;9.60;;;3.50;81.30;;;;;;4956161;28;20257;-72
2021/12/10 08:17:07;;;;;;;14.02;7.88;;;3.50;81.30;;;;;;4938842;28;20236;-72
2021/12/10 08:19:35;;;;;;;13.60;9.05;;;3.50;81.30;;;;;;4940165;28;20873;-72
2021/12/10 08:22:04;;;;;;;15.63;9.10;;;3.50;81.40;;;;;;4938286;28;20212;-72
2021/12/10 08:24:32;;;;;;;16.67;10.00;;;3.50;81.30;;;;;;4936176;28;20219;-70
2021/12/10 08:27:00;;;;;;;14.70;10.18;;;3.50;81.30;;;;;;4935610;28;20789;-72
2021/12/10 08:29:29;;;;;;;21.92;11.20;;;3.50;81.30;;;;;;4938029;28;20229;-72
2021/12/10 08:31:57;;;;;;;20.60;11.27;;;3.50;81.20;;;;;;4939319;28;20601;-72
2021/12/10 08:34:25;;;;;;;17.52;10.18;;;3.50;81.30;;;;;;4947040;28;20304;-72
2021/12/10 08:36:53;;;;;;;24.02;13.18;;;3.50;81.30;;;;;;4946757;28;20870;-72
2021/12/10 08:39:22;;;;;;;21.55;12.02;;;3.50;81.20;;;;;;4948520;28;20216;-72
2021/12/10 08:41:51;;;;;;;21.33;13.45;;;3.50;81.20;;;;;;4951211;28;20688;-71
2021/12/10 08:44:19;;;;;;;26.42;12.32;;;3.50;81.30;;;;;;4947088;28;20231;-72
2021/12/10 08:46:48;;;;;;;22.65;12.55;;;3.50;81.20;;;;;;4941500;28;20285;-72
2021/12/10 08:49:16;;;;;;;17.40;13.05;;;3.50;81.20;;;;;;4938154;28;20223;-72
2021/12/10 08:51:49;;;;;;;21.67;12.10;;;3.60;81.30;;;;;;4939161;28;20721;-72
2021/12/10 08:54:21;;;;;;;21.27;12.65;;;3.60;81.10;;;;;;4939838;28;20231;-72
2021/12/10 08:56:49;;;;;;;19.80;12.35;;;3.60;81.00;;;;;;4939012;28;20227;-72
2021/12/10 08:59:21;;;;;;;25.00;14.90;;;3.50;81.00;;;;;;4942438;28;20798;-72
2021/12/10 09:01:55;;;;;;;23.48;13.70;;;3.50;81.00;;;;;;4940217;28;20236;-72
2021/12/10 09:04:23;;;;;;;25.92;14.68;;;3.40;81.00;;;;;;4942005;28;20642;-72
2021/12/10 09:06:54;;;;;;;27.10;16.42;;;3.40;81.00;;;;;;4941032;28;20221;-71
2021/12/10 09:09:24;;;;;;;31.15;16.83;;;3.40;81.00;;;;;;4941795;28;20212;-72
2021/12/10 09:11:55;;;;;;;29.52;18.08;;;3.40;81.10;;;;;;4940784;28;20733;-72
2021/12/10 09:14:27;;;;;;;30.50;16.45;;;3.40;81.20;;;;;;4940440;28;20208;-72
2021/12/10 09:17:00;;;;;;;26.55;17.27;;;3.40;81.30;;;;;;4944986;28;20233;-72
2021/12/10 09:19:29;;;;;;;26.80;16.75;;;3.40;81.20;;;;;;4950713;28;20226;-72
2021/12/10 09:21:58;;;;;;;28.73;15.35;;;3.40;81.20;;;;;;4962615;28;20219;-72
2021/12/10 09:24:26;;;;;;;30.17;15.95;;;3.40;81.10;;;;;;4947127;28;20211;-72
2021/12/10 09:26:56;;;;;;;26.95;17.23;;;3.40;81.10;;;;;;4942316;28;20212;-72
2021/12/10 09:29:27;;;;;;;25.05;16.95;;;3.40;81.00;;;;;;4943232;28;20266;-72
2021/12/10 09:31:56;;;;;;;33.45;19.20;;;3.40;81.10;;;;;;4946642;28;20244;-72
2021/12/10 09:34:25;;;;;;;34.05;19.40;;;3.40;81.00;;;;;;4941894;28;21078;-72
2021/12/10 09:36:55;;;;;;;29.90;18.02;;;3.30;81.10;;;;;;4948138;28;20215;-72
2021/12/10 09:39:23;;;;;;;27.90;17.27;;;3.40;81.30;;;;;;4949471;28;20228;-72
2021/12/10 09:41:54;;;;;;;28.17;17.35;;;3.40;81.50;;;;;;4960226;28;20678;-72
2021/12/10 09:44:22;;;;;;;24.98;14.60;;;3.50;81.50;;;;;;4947438;28;20204;-72
2021/12/10 09:46:53;;;;;;;28.42;16.83;;;3.60;81.40;;;;;;4943717;28;20228;-72
2021/12/10 09:49:24;;;;;;;26.05;15.73;;;3.60;81.40;;;;;;4947376;28;20235;-72
2021/12/10 09:51:57;;;;;;;25.58;14.95;;;3.60;81.30;;;;;;4948670;28;20211;-72
2021/12/10 09:54:28;;;;;;;24.17;13.20;;;3.70;81.30;;;;;;4943723;28;20266;-72
2021/12/10 09:57:00;;;;;;;52.10;22.10;;;3.60;81.10;;;;;;4941456;28;20208;-72
2021/12/10 09:59:29;;;;;;;31.02;18.00;;;3.60;81.20;;;;;;4948620;28;20246;-73
2021/12/10 10:01:59;;;;;;;27.30;17.50;;;3.70;81.10;;;;;;4956513;28;20226;-75
2021/12/10 10:04:33;;;;;;;31.20;15.10;;;3.60;81.20;;;;;;4977115;28;20211;-71
2021/12/10 10:07:05;;;;;;;23.42;13.98;;;3.70;81.20;;;;;;4960211;28;20202;-73
2021/12/10 10:09:33;;;;;;;24.80;15.00;;;3.70;81.10;;;;;;4977191;28;20278;-72
2021/12/10 10:12:07;;;;;;;23.23;16.55;;;3.70;81.20;;;;;;4979349;28;20220;-72
2021/12/10 10:14:36;;;;;;;27.65;15.82;;;3.70;81.30;;;;;;4959935;28;20269;-74
2021/12/10 10:17:06;;;;;;;25.35;15.23;;;3.80;81.10;;;;;;4948390;28;20739;-73
2021/12/10 10:19:36;;;;;;;29.58;17.05;;;3.80;81.00;;;;;;4945324;28;20890;-74
2021/12/10 10:22:07;;;;;;;26.15;16.60;;;3.80;80.90;;;;;;4944526;28;20764;-73
2021/12/10 10:24:35;;;;;;;27.48;14.80;;;3.80;81.10;;;;;;4947457;28;20207;-74
2021/12/10 10:27:07;;;;;;;21.77;13.82;;;3.80;81.10;;;;;;4942699;28;20283;-74
2021/12/10 10:29:38;;;;;;;29.15;16.23;;;3.80;81.00;;;;;;4945221;28;20212;-73
2021/12/10 10:32:12;;;;;;;29.60;17.70;;;3.90;81.00;;;;;;4936335;28;20232;-73
2021/12/10 10:34:46;;;;;;;29.80;15.32;;;3.90;80.90;;;;;;4938731;28;20703;-74
2021/12/10 10:37:15;;;;;;;24.15;13.40;;;3.90;81.00;;;;;;4958527;28;20231;-74
2021/12/10 10:39:44;;;;;;;28.70;15.10;;;4.00;81.00;;;;;;4943889;28;20239;-72
2021/12/10 10:42:16;;;;;;;22.13;14.15;;;4.00;80.80;;;;;;4937873;28;20220;-73
2021/12/10 10:44:58;;;;;;;20.73;12.60;;;4.00;80.70;;;;;;4941695;28;20242;-73
2021/12/10 10:47:26;;;;;;;26.73;14.18;;;3.90;80.70;;;;;;4942852;28;20634;-73
2021/12/10 10:49:58;;;;;;;19.80;12.10;;;3.90;80.70;;;;;;4943363;28;20686;-73
2021/12/10 10:52:30;;;;;;;22.25;12.52;;;4.00;80.70;;;;;;4941822;28;20219;-72
2021/12/10 10:55:14;;;;;;;20.75;11.40;;;3.90;80.70;;;;;;4942282;28;20207;-73
2021/12/10 10:57:52;;;;;;;26.55;13.63;;;4.00;80.60;;;;;;4939684;28;20223;-73
2021/12/10 11:00:28;;;;;;;24.77;15.18;;;3.90;80.40;;;;;;4942075;28;20231;-73
2021/12/10 11:03:02;;;;;;;36.03;21.17;;;3.90;80.50;;;;;;4958157;28;20214;-72
2021/12/10 11:05:33;;;;;;;22.17;14.05;;;3.90;80.50;;;;;;4963120;28;20306;-72
2021/12/10 11:08:06;;;;;;;22.58;13.25;;;3.90;80.60;;;;;;4956966;28;20223;-72
2021/12/10 11:10:37;;;;;;;25.60;15.07;;;3.90;80.50;;;;;;4960098;28;20239;-73
2021/12/10 11:13:12;;;;;;;24.10;15.70;;;3.90;80.30;;;;;;4960451;28;20775;-73
2021/12/10 11:15:41;;;;;;;33.63;16.88;;;3.90;80.40;;;;;;4957806;28;20230;-73
2021/12/10 11:18:16;;;;;;;31.40;17.27;;;3.90;80.40;;;;;;4942982;28;20267;-72
2021/12/10 11:20:46;;;;;;;34.60;16.63;;;4.00;80.40;;;;;;4945386;28;20315;-73
2021/12/10 11:23:16;;;;;;;33.42;17.77;;;4.00;80.30;;;;;;4944957;28;20303;-73
2021/12/10 11:25:48;;;;;;;44.63;21.73;;;4.00;80.40;;;;;;4945851;28;20621;-73
2021/12/10 11:28:26;;;;;;;42.17;18.95;;;4.00;80.50;;;;;;4951130;28;20227;-73
2021/12/10 11:31:02;;;;;;;26.55;13.75;;;4.10;80.50;;;;;;4959109;28;20679;-73
2021/12/10 11:33:35;;;;;;;55.85;24.13;;;4.10;80.40;;;;;;4965793;28;20210;-73
2021/12/10 11:36:09;;;;;;;43.22;18.85;;;4.20;80.40;;;;;;4965651;28;20218;-73
2021/12/10 11:38:39;;;;;;;21.33;12.30;;;4.20;80.30;;;;;;4973766;28;20225;-73
2021/12/10 11:41:10;;;;;;;47.30;22.10;;;4.30;80.20;;;;;;4957737;28;20726;-73
2021/12/10 11:43:52;;;;;;;66.00;27.35;;;4.30;80.00;;;;;;4958165;28;20566;-73
2021/12/10 11:46:44;;;;;;;29.60;19.10;;;4.40;80.00;;;;;;4963072;28;20293;-73
2021/12/10 11:49:18;;;;;;;138.50;20.10;;;4.50;80.40;;;;;;4965912;28;20736;-73
2021/12/10 11:51:50;;;;;;;18.80;12.23;;;4.60;80.30;;;;;;4965469;28;20291;-73
2021/12/10 11:54:26;;;;;;;20.80;13.45;;;4.70;80.00;;;;;;4973772;28;20231;-73
2021/12/10 11:56:58;;;;;;;26.40;16.58;;;4.70;80.10;;;;;;4958001;28;20213;-73
2021/12/10 11:59:28;;;;;;;69.82;14.90;;;4.80;80.30;;;;;;4962574;28;20218;-73
2021/12/10 12:02:00;;;;;;;52.88;16.10;;;4.90;80.30;;;;;;4974361;28;20668;-73
2021/12/10 12:04:32;;;;;;;32.08;15.38;;;4.90;80.10;;;;;;4957917;28;20213;-72
2021/12/10 12:07:35;;;;;;;23.83;12.70;;;5.00;79.90;;;;;;4960532;28;20214;-72
2021/12/10 12:10:19;;;;;;;19.00;11.23;;;5.10;79.70;;;;;;4924373;29;20219;-71
2021/12/10 12:12:50;;;;;;;19.85;12.18;;;5.00;79.30;;;;;;4952331;28;20883;-72
2021/12/10 12:15:24;;;;;;;16.40;10.55;;;5.00;79.50;;;;;;4958226;28;20785;-71
2021/12/10 12:17:54;;;;;;;18.27;12.75;;;5.00;79.00;;;;;;4943468;28;20227;-72
2021/12/10 12:20:30;;;;;;;23.13;13.52;;;4.90;79.10;;;;;;4938493;28;20243;-69
2021/12/10 12:25:52;;;;;;;17.80;10.82;;;4.90;78.80;;;;;;4939614;28;20633;-72
2021/12/10 12:28:31;;;;;;;18.85;10.30;;;4.80;79.00;;;;;;4940711;28;20309;-71
2021/12/10 12:31:22;;;;;;;187.45;21.50;;;4.80;78.90;;;;;;4942094;28;20326;-71
2021/12/10 12:33:58;;;;;;;21.77;10.32;;;4.80;78.70;;;;;;4937851;28;20780;-71
2021/12/10 12:36:31;;;;;;;23.23;11.57;;;4.70;78.70;;;;;;4940317;28;20960;-71
2021/12/10 12:39:05;;;;;;;52.22;18.52;;;4.70;78.60;;;;;;4939570;28;20459;-70
2021/12/10 12:41:37;;;;;;;21.98;12.82;;;4.80;78.40;;;;;;4939330;28;20227;-70
2021/12/10 12:44:17;;;;;;;14.50;9.43;;;4.70;78.50;;;;;;4936973;28;20207;-70
2021/12/10 12:47:12;;;;;;;21.25;11.30;;;4.80;78.20;;;;;;4947228;28;20242;-69
2021/12/10 12:50:11;;;;;;;18.25;11.07;;;4.70;78.10;;;;;;4955645;28;20289;-70
2021/12/10 12:52:44;;;;;;;142.32;19.13;;;4.70;78.10;;;;;;4891531;29;20632;-70
2021/12/10 12:55:38;;;;;;;20.50;11.80;;;4.60;77.90;;;;;;4941480;28;20282;-69
2021/12/10 12:58:20;;;;;;;16.40;11.13;;;4.70;78.10;;;;;;4954843;28;20819;-71
2021/12/10 13:01:14;;;;;;;22.67;13.75;;;4.60;78.10;;;;;;4947288;28;20295;-71
2021/12/10 13:03:47;;;;;;;39.35;12.75;;;4.60;78.10;;;;;;4935524;28;20452;-72
2021/12/10 13:06:38;;;;;;;22.15;9.60;;;4.70;77.90;;;;;;4943569;28;20208;-69
2021/12/10 13:09:12;;;;;;;23.27;9.45;;;4.70;77.90;;;;;;4944521;28;20920;-69
2021/12/10 13:11:54;;;;;;;22.98;9.38;;;4.70;77.90;;;;;;4939451;28;20222;-69
2021/12/10 13:14:28;;;;;;;18.13;8.88;;;4.70;77.80;;;;;;4947799;28;20725;-70
2021/12/10 13:17:09;;;;;;;18.88;10.60;;;4.70;77.80;;;;;;4940181;28;20235;-68